Time;durP1;ratioP1;P1;durP2;ratioP2;P2;SDS_P1;SDS_P2;PMS_P1;PMS_P2;Temp;Humidity;BMP_temperature;BMP_pressure;BME280_temperature;BME280_humidity;BME280_pressure;Samples;Min_cycle;Max_cycle;Signal;HPM_P1;HPM_P2
2021/11/23 00:00:47;;;;;;;60.55;29.18;;;;;;;6.41;67.35;101340.45;1834737;78;27426;-65
2021/11/23 00:03:18;;;;;;;59.95;30.10;;;;;;;6.39;67.62;101340.55;1820202;77;25737;-64
2021/11/23 00:05:48;;;;;;;55.80;28.55;;;;;;;6.30;67.66;101340.28;1800419;78;25762;-64
2021/11/23 00:08:17;;;;;;;59.30;29.92;;;;;;;6.23;67.54;101343.30;1799957;78;26745;-64
2021/11/23 00:10:46;;;;;;;54.20;30.43;;;;;;;6.19;67.84;101348.47;1800560;79;25799;-65
2021/11/23 00:13:14;;;;;;;63.48;29.80;;;;;;;6.15;67.91;101350.93;1800087;78;27441;-65
2021/11/23 00:15:43;;;;;;;66.02;32.33;;;;;;;6.10;67.99;101356.55;1800211;79;25777;-65
2021/11/23 00:18:12;;;;;;;69.40;30.27;;;;;;;6.10;68.01;101356.55;1799962;79;25789;-64
2021/11/23 00:20:43;;;;;;;62.08;30.92;;;;;;;6.08;68.49;101357.60;1800175;78;25786;-65
2021/11/23 00:23:12;;;;;;;56.98;31.27;;;;;;;6.03;68.52;101355.70;1800165;79;25766;-64
2021/11/23 00:25:42;;;;;;;60.75;30.68;;;;;;;6.00;68.30;101367.89;1800139;78;28281;-64
2021/11/23 00:28:10;;;;;;;55.25;29.75;;;;;;;5.97;68.35;101363.56;1800283;78;25699;-64
2021/11/23 00:30:39;;;;;;;60.12;32.05;;;;;;;5.96;68.49;101357.84;1800182;79;25641;-64
2021/11/23 00:33:08;;;;;;;64.42;31.17;;;;;;;5.94;68.51;101361.06;1811245;78;26404;-64
2021/11/23 00:35:37;;;;;;;59.23;30.40;;;;;;;5.91;68.77;101359.45;1817911;78;25779;-64
2021/11/23 00:38:05;;;;;;;56.18;30.23;;;;;;;5.92;68.77;101365.63;1817979;78;27435;-65
2021/11/23 00:40:33;;;;;;;57.13;29.25;;;;;;;5.91;69.07;101373.29;1817502;78;25731;-64
2021/11/23 00:43:04;;;;;;;61.08;29.82;;;;;;;5.91;69.24;101375.47;1817513;78;25735;-65
2021/11/23 00:45:32;;;;;;;60.65;28.60;;;;;;;5.94;69.82;101389.11;1817403;78;25788;-64
2021/11/23 00:47:59;;;;;;;47.13;26.17;;;;;;;5.95;69.58;101389.04;1817830;78;25627;-64
2021/11/23 00:50:27;;;;;;;55.58;28.07;;;;;;;5.99;69.67;101386.16;1817913;78;27482;-65
2021/11/23 00:52:54;;;;;;;56.53;28.67;;;;;;;6.01;69.90;101385.15;1818019;78;25792;-64
2021/11/23 00:55:21;;;;;;;54.80;29.10;;;;;;;6.05;70.00;101384.52;1817198;78;25749;-64
2021/11/23 00:57:48;;;;;;;60.65;31.75;;;;;;;6.09;70.00;101386.03;1817639;78;25805;-65
2021/11/23 01:00:15;;;;;;;68.00;30.97;;;;;;;6.14;70.26;101390.61;1811822;78;25691;-63
2021/11/23 01:02:43;;;;;;;67.30;31.73;;;;;;;6.20;70.84;101396.95;1807147;79;26767;-64
2021/11/23 01:05:11;;;;;;;52.60;30.23;;;;;;;6.23;70.35;101398.08;1797246;79;25794;-64
2021/11/23 01:07:38;;;;;;;58.87;29.48;;;;;;;6.26;70.30;101396.56;1797319;79;26355;-64
2021/11/23 01:10:09;;;;;;;74.87;33.92;;;;;;;6.32;70.49;101403.84;1797084;79;27947;-64
2021/11/23 01:12:37;;;;;;;69.22;33.28;;;;;;;6.32;70.69;101406.52;1797309;79;25806;-64
2021/11/23 01:15:06;;;;;;;70.05;34.48;;;;;;;6.26;70.39;101404.58;1797399;78;27414;-64
2021/11/23 01:17:33;;;;;;;61.98;33.25;;;;;;;6.31;70.48;101404.80;1797236;79;26012;-64
2021/11/23 01:20:00;;;;;;;65.17;32.03;;;;;;;6.34;70.58;101410.81;1797376;79;25715;-64
2021/11/23 01:22:27;;;;;;;60.90;31.23;;;;;;;6.37;70.59;101409.27;1797169;79;25786;-64
2021/11/23 01:24:54;;;;;;;67.03;31.80;;;;;;;6.42;70.60;101409.86;1797643;79;25735;-64
2021/11/23 01:27:21;;;;;;;58.33;30.57;;;;;;;6.51;70.96;101404.41;1796934;79;28640;-64
2021/11/23 01:29:48;;;;;;;61.33;32.17;;;;;;;6.55;70.70;101401.95;1797145;79;25838;-64
2021/11/23 01:32:15;;;;;;;65.03;34.40;;;;;;;6.62;70.70;101402.90;1801302;77;25728;-64
2021/11/23 01:34:42;;;;;;;69.05;33.02;;;;;;;6.63;70.47;101408.63;1809847;79;25817;-65
2021/11/23 01:37:09;;;;;;;75.28;33.63;;;;;;;6.64;70.46;101407.68;1809640;79;25884;-65
2021/11/23 01:39:36;;;;;;;57.73;31.82;;;;;;;6.63;70.27;101413.98;1809148;79;28047;-66
2021/11/23 01:42:05;;;;;;;68.60;33.78;;;;;;;6.60;70.03;101411.02;1809168;79;25746;-64
2021/11/23 01:44:32;;;;;;;72.97;34.70;;;;;;;6.56;70.08;101402.34;1809764;79;25793;-64
2021/11/23 01:46:59;;;;;;;68.75;34.20;;;;;;;6.50;70.26;101402.69;1809374;79;25782;-63
2021/11/23 01:49:26;;;;;;;70.28;33.55;;;;;;;6.43;70.31;101405.36;1827129;78;25692;-65
2021/11/23 01:51:53;;;;;;;68.80;34.78;;;;;;;6.36;70.42;101406.23;1828636;77;27463;-65
2021/11/23 01:54:21;;;;;;;72.50;35.90;;;;;;;6.34;70.51;101401.91;1828921;78;25746;-65
2021/11/23 01:56:48;;;;;;;63.65;34.13;;;;;;;6.33;70.67;101410.88;1828891;78;25769;-65
2021/11/23 01:59:16;;;;;;;66.10;35.50;;;;;;;6.29;70.59;101411.55;1776603;77;25776;-65
2021/11/23 02:01:45;;;;;;;67.40;34.23;;;;;;;6.23;71.19;101410.59;1779686;80;25607;-64
2021/11/23 02:04:12;;;;;;;63.80;33.28;;;;;;;6.18;71.04;101410.02;1808558;79;27474;-65
2021/11/23 02:06:40;;;;;;;68.42;32.28;;;;;;;6.14;71.57;101409.80;1815081;77;25485;-64
2021/11/23 02:09:07;;;;;;;59.70;33.13;;;;;;;6.11;72.17;101413.03;1815144;77;25724;-64
2021/11/23 02:11:34;;;;;;;63.70;32.73;;;;;;;6.08;72.30;101407.02;1815138;77;25805;-63
2021/11/23 02:14:03;;;;;;;69.70;32.70;;;;;;;6.09;72.22;101410.08;1815397;79;25720;-63
2021/11/23 02:16:33;;;;;;;61.88;31.45;;;;;;;6.09;72.74;101416.30;1815154;79;28149;-63
2021/11/23 02:19:00;;;;;;;70.70;34.30;;;;;;;6.09;72.29;101413.63;1815058;79;25723;-64
2021/11/23 02:21:27;;;;;;;62.48;33.85;;;;;;;6.12;72.66;101411.24;1815159;79;25784;-63
2021/11/23 02:23:55;;;;;;;64.92;33.42;;;;;;;6.14;72.93;101416.48;1815347;78;26124;-63
2021/11/23 02:26:22;;;;;;;63.98;32.20;;;;;;;6.16;73.04;101414.09;1815133;77;25682;-63
2021/11/23 02:28:48;;;;;;;70.62;33.05;;;;;;;6.21;73.32;101410.69;1815151;79;27449;-63
2021/11/23 02:31:15;;;;;;;55.08;30.68;;;;;;;6.31;73.56;101412.81;1815463;79;25834;-64
2021/11/23 02:33:43;;;;;;;60.35;30.90;;;;;;;6.33;73.51;101406.87;1806798;79;25758;-63
2021/11/23 02:36:11;;;;;;;56.60;30.70;;;;;;;6.32;73.31;101410.03;1806624;78;25770;-64
2021/11/23 02:38:40;;;;;;;62.10;29.87;;;;;;;6.32;73.41;101413.20;1806203;78;25758;-64
2021/11/23 02:41:11;;;;;;;59.98;32.63;;;;;;;6.34;73.37;101412.14;1806491;78;28252;-64
2021/11/23 02:43:40;;;;;;;59.65;31.65;;;;;;;6.32;73.48;101414.53;1806141;79;25660;-63
2021/11/23 02:46:09;;;;;;;58.48;30.92;;;;;;;6.31;73.74;101421.67;1806493;78;25782;-64
2021/11/23 02:48:37;;;;;;;61.88;31.90;;;;;;;6.33;74.14;101421.57;1811154;78;25796;-64
2021/11/23 02:51:15;;;;;;;61.92;31.93;;;;;;;6.44;74.51;101423.13;1815562;79;25435;-64
2021/11/23 02:53:37;;;;;;;61.28;30.72;;;;;;;6.48;74.22;101423.34;1814293;79;28184;-64
2021/11/23 02:56:04;;;;;;;62.73;29.90;;;;;;;6.51;74.08;101423.13;1815122;79;25904;-64
2021/11/23 02:58:33;;;;;;;59.53;31.00;;;;;;;6.57;74.22;101425.45;1815285;79;25435;-64
2021/11/23 03:01:04;;;;;;;63.78;31.65;;;;;;;6.66;74.36;101429.35;1811123;79;25766;-64
2021/11/23 03:03:31;;;;;;;62.53;31.10;;;;;;;6.71;74.11;101430.41;1809320;78;25707;-64
2021/11/23 03:05:59;;;;;;;58.90;31.35;;;;;;;6.67;73.88;101432.41;1809850;77;28121;-64
2021/11/23 03:08:26;;;;;;;53.38;29.45;;;;;;;6.65;73.81;101433.47;1809625;79;25754;-64
2021/11/23 03:10:53;;;;;;;62.43;31.93;;;;;;;6.66;73.82;101428.50;1809450;79;25666;-64
2021/11/23 03:13:20;;;;;;;69.17;32.42;;;;;;;6.66;73.94;101428.50;1809662;79;26642;-64
2021/11/23 03:15:47;;;;;;;60.48;29.52;;;;;;;6.72;74.12;101432.12;1809403;77;25719;-64
2021/11/23 03:18:16;;;;;;;57.13;28.62;;;;;;;6.78;73.98;101434.41;1809598;79;27490;-64
2021/11/23 03:20:45;;;;;;;62.67;30.37;;;;;;;6.83;74.08;101439.02;1809221;77;25792;-64
2021/11/23 03:23:13;;;;;;;58.52;30.82;;;;;;;6.87;74.17;101440.52;1809745;79;25759;-63
2021/11/23 03:25:40;;;;;;;57.65;32.45;;;;;;;6.92;74.12;101432.21;1809369;79;25771;-64
2021/11/23 03:28:08;;;;;;;62.05;31.45;;;;;;;6.94;73.89;101437.00;1809455;79;25719;-64
2021/11/23 03:30:36;;;;;;;60.33;30.88;;;;;;;6.99;74.06;101438.89;1809641;79;28367;-64
2021/11/23 03:33:07;;;;;;;57.20;30.02;;;;;;;7.05;74.07;101438.53;1798407;78;25737;-64
2021/11/23 03:35:41;;;;;;;58.00;31.55;;;;;;;7.02;73.47;101435.19;1792298;80;25786;-64
2021/11/23 03:38:11;;;;;;;60.73;32.45;;;;;;;6.92;73.32;101442.91;1792983;80;25760;-64
2021/11/23 03:40:41;;;;;;;61.95;32.05;;;;;;;6.88;73.61;101446.27;1792324;79;25825;-64
2021/11/23 03:43:09;;;;;;;67.32;32.53;;;;;;;6.79;73.79;101444.65;1792335;80;27468;-65
2021/11/23 03:45:37;;;;;;;68.55;34.38;;;;;;;6.61;74.66;101454.64;1792216;78;25774;-64
2021/11/23 03:48:05;;;;;;;65.03;34.92;;;;;;;6.48;74.73;101459.42;1798569;79;25753;-65
2021/11/23 03:50:33;;;;;;;62.35;35.08;;;;;;;6.40;75.35;101459.87;1809475;79;26719;-64
2021/11/23 03:53:00;;;;;;;71.30;34.10;;;;;;;6.39;74.84;101453.29;1809860;77;25781;-64
2021/11/23 03:55:32;;;;;;;64.92;36.38;;;;;;;6.40;74.99;101456.35;1809483;79;27467;-64
2021/11/23 03:57:57;;;;;;;68.05;36.83;;;;;;;6.35;75.29;101458.42;1809545;79;25719;-64
2021/11/23 04:00:25;;;;;;;66.12;37.20;;;;;;;6.35;75.69;101458.42;1806815;78;25419;-64
2021/11/23 04:02:54;;;;;;;63.38;34.78;;;;;;;6.33;76.36;101471.89;1796305;79;25841;-63
2021/11/23 04:05:22;;;;;;;61.53;36.40;;;;;;;6.28;75.89;101466.42;1784026;80;26337;-64
2021/11/23 04:07:49;;;;;;;59.65;36.33;;;;;;;6.25;75.96;101469.66;1783684;80;27467;-63
2021/11/23 04:10:17;;;;;;;69.50;37.95;;;;;;;6.24;76.38;101474.61;1783624;80;25819;-65
2021/11/23 04:12:46;;;;;;;74.92;37.58;;;;;;;6.26;76.53;101473.20;1784004;79;25703;-65
2021/11/23 04:15:14;;;;;;;66.40;36.08;;;;;;;6.23;76.48;101474.71;1783868;79;25768;-65
2021/11/23 04:17:41;;;;;;;65.22;38.40;;;;;;;6.26;76.44;101475.88;1783885;80;25788;-65
2021/11/23 04:20:10;;;;;;;64.07;36.42;;;;;;;6.26;76.91;101474.05;1783921;79;27472;-64
2021/11/23 04:22:38;;;;;;;59.77;35.68;;;;;;;6.29;76.73;101479.69;1784254;79;25944;-64
2021/11/23 04:25:08;;;;;;;62.95;35.83;;;;;;;6.33;76.86;101482.58;1783837;80;25791;-64
2021/11/23 04:27:37;;;;;;;63.87;35.03;;;;;;;6.43;77.05;101486.88;1784134;79;25752;-64
2021/11/23 04:30:08;;;;;;;58.50;33.45;;;;;;;6.50;77.02;101484.22;1783860;79;25847;-65
2021/11/23 04:32:35;;;;;;;55.33;32.67;;;;;;;6.56;77.39;101487.88;1792229;79;28208;-65
2021/11/23 04:35:04;;;;;;;56.08;31.23;;;;;;;6.55;77.55;101490.17;1800611;79;25723;-65
2021/11/23 04:37:32;;;;;;;57.30;31.60;;;;;;;6.54;77.08;101493.79;1801443;79;25802;-63
2021/11/23 04:39:58;;;;;;;50.55;29.70;;;;;;;6.53;77.52;101491.22;1801290;79;25675;-65
2021/11/23 04:42:25;;;;;;;50.88;29.50;;;;;;;6.54;78.10;101496.46;1824023;78;25418;-64
2021/11/23 04:44:52;;;;;;;46.80;27.75;;;;;;;6.48;77.81;101495.50;1839796;78;27463;-64
2021/11/23 04:47:19;;;;;;;62.27;35.17;;;;;;;6.49;79.24;101493.67;1839074;78;25797;-64
2021/11/23 04:49:46;;;;;;;48.17;26.68;;;;;;;6.39;79.91;101494.23;1822837;77;25704;-67
2021/11/23 04:52:13;;;;;;;28.62;16.87;;;;;;;6.30;80.54;101500.11;1822890;77;25890;-68
2021/11/23 04:54:40;;;;;;;26.80;15.88;;;;;;;6.21;80.46;101508.21;1823033;77;25787;-64
2021/11/23 04:57:07;;;;;;;31.70;16.00;;;;;;;6.13;80.49;101502.92;1822906;77;28635;-64
2021/11/23 04:59:34;;;;;;;25.77;15.38;;;;;;;6.08;81.26;101512.53;1823091;77;25861;-64
2021/11/23 05:02:02;;;;;;;14.30;9.18;;;;;;;6.01;81.01;101527.20;1822984;77;25660;-63
2021/11/23 05:04:29;;;;;;;15.68;9.33;;;;;;;5.96;81.03;101517.59;1802623;78;25786;-66
2021/11/23 05:06:56;;;;;;;20.32;9.98;;;;;;;5.88;80.98;101521.66;1800908;79;25759;-65
2021/11/23 05:09:23;;;;;;;12.90;8.35;;;;;;;5.83;81.15;101530.42;1800933;78;27533;-64
2021/11/23 05:11:50;;;;;;;11.95;6.65;;;;;;;5.76;81.11;101540.58;1800619;79;25730;-62
2021/11/23 05:14:17;;;;;;;9.70;5.53;;;;;;;5.70;80.65;101551.13;1800961;79;25774;-65
2021/11/23 05:16:45;;;;;;;8.70;4.85;;;;;;;5.65;80.42;101555.84;1800780;79;25797;-63
2021/11/23 05:19:12;;;;;;;11.45;4.42;;;;;;;5.57;79.85;101560.74;1801178;79;25758;-63
2021/11/23 05:21:39;;;;;;;6.72;4.22;;;;;;;5.50;79.74;101557.57;1800945;78;27462;-63
2021/11/23 05:24:09;;;;;;;5.78;3.22;;;;;;;5.41;79.81;101561.59;1800863;79;25982;-63
2021/11/23 05:26:36;;;;;;;5.62;4.33;;;;;;;5.32;79.82;101564.75;1801045;79;25678;-63
2021/11/23 05:29:04;;;;;;;6.80;4.15;;;;;;;5.29;79.95;101568.94;1801189;79;26538;-62
2021/11/23 05:31:33;;;;;;;10.72;6.25;;;;;;;5.26;80.35;101574.42;1800419;79;25732;-63
2021/11/23 05:34:04;;;;;;;5.17;3.67;;;;;;;5.24;80.42;101581.64;1784169;79;27431;-66
2021/11/23 05:36:34;;;;;;;11.27;5.17;;;;;;;5.22;80.46;101583.06;1746884;80;25852;-63
2021/11/23 05:39:00;;;;;;;5.08;3.52;;;;;;;5.17;80.25;101591.77;1784125;79;25838;-64
2021/11/23 05:41:27;;;;;;;4.65;3.75;;;;;;;5.14;80.18;101605.29;1783938;79;25792;-64
2021/11/23 05:43:54;;;;;;;8.98;3.08;;;;;;;5.10;80.16;101603.70;1783897;80;25722;-64
2021/11/23 05:46:21;;;;;;;3.40;2.92;;;;;;;5.09;80.17;101612.65;1783782;79;27489;-64
2021/11/23 05:48:48;;;;;;;5.08;2.92;;;;;;;5.09;79.93;101625.53;1794917;79;25683;-65
2021/11/23 05:51:15;;;;;;;4.08;2.83;;;;;;;5.12;79.99;101628.02;1800756;79;25687;-64
2021/11/23 05:53:42;;;;;;;4.15;2.55;;;;;;;5.13;80.16;101639.57;1800904;79;25855;-64
2021/11/23 05:56:12;;;;;;;5.45;3.00;;;;;;;5.15;79.88;101645.20;1800938;79;25695;-63
2021/11/23 05:58:40;;;;;;;5.25;2.72;;;;;;;5.21;79.84;101656.03;1785590;78;27468;-64
2021/11/23 06:01:06;;;;;;;7.55;3.15;;;;;;;5.22;79.41;101657.77;1765178;79;25502;-64
2021/11/23 06:03:34;;;;;;;7.25;2.95;;;;;;;5.24;79.07;101662.55;1775387;79;25435;-64
2021/11/23 06:06:02;;;;;;;5.90;2.50;;;;;;;5.27;78.87;101663.71;1783795;79;25865;-63
2021/11/23 06:08:29;;;;;;;6.12;3.20;;;;;;;5.34;79.04;101676.27;1783944;79;26013;-64
2021/11/23 06:10:57;;;;;;;6.55;3.75;;;;;;;5.39;78.75;101678.70;1783936;80;27456;-62
2021/11/23 06:13:24;;;;;;;6.45;3.90;;;;;;;5.45;78.77;101687.25;1783619;79;25769;-63
2021/11/23 06:15:51;;;;;;;4.72;3.40;;;;;;;5.52;78.53;101692.26;1783720;79;25700;-63
2021/11/23 06:18:18;;;;;;;5.03;2.92;;;;;;;5.49;77.99;101687.95;1783910;79;26119;-63
2021/11/23 06:20:48;;;;;;;4.78;3.05;;;;;;;5.48;78.03;101691.56;1783953;79;25716;-62
2021/11/23 06:23:19;;;;;;;6.78;3.90;;;;;;;5.49;77.79;101699.47;1784041;79;27443;-63
2021/11/23 06:25:50;;;;;;;6.70;3.92;;;;;;;5.49;77.74;101703.97;1783876;80;25796;-62
2021/11/23 06:28:20;;;;;;;5.10;3.40;;;;;;;5.53;77.68;101704.66;1783937;79;25747;-64
2021/11/23 06:30:48;;;;;;;7.25;4.08;;;;;;;5.56;77.68;101701.84;1783921;79;25791;-64
2021/11/23 06:33:16;;;;;;;8.35;4.45;;;;;;;5.60;77.47;101711.40;1783738;79;25739;-65
2021/11/23 06:35:44;;;;;;;5.17;3.22;;;;;;;5.62;77.58;101714.38;1783806;79;27521;-63
2021/11/23 06:38:11;;;;;;;5.37;3.65;;;;;;;5.57;76.74;101713.77;1783655;79;25675;-63
2021/11/23 06:40:39;;;;;;;6.55;3.65;;;;;;;5.44;76.56;101725.55;1784049;79;25695;-64
2021/11/23 06:43:07;;;;;;;9.40;3.80;;;;;;;5.40;76.32;101727.12;1784975;79;25835;-64
2021/11/23 06:45:36;;;;;;;9.55;3.95;;;;;;;5.29;75.89;101729.87;1751451;81;25783;-65
2021/11/23 06:48:05;;;;;;;8.55;4.10;;;;;;;5.20;76.27;101741.48;1742509;82;27466;-64
2021/11/23 06:50:32;;;;;;;5.42;3.98;;;;;;;5.15;76.59;101741.23;1801174;79;25798;-64
2021/11/23 06:53:02;;;;;;;5.60;3.12;;;;;;;5.20;76.94;101744.16;1800951;79;25727;-63
2021/11/23 06:55:30;;;;;;;4.37;3.20;;;;;;;5.24;77.28;101739.92;1801943;78;26416;-63
2021/11/23 06:57:58;;;;;;;5.83;4.05;;;;;;;5.22;77.02;101745.80;1802937;79;25698;-64
2021/11/23 07:00:25;;;;;;;3.92;2.70;;;;;;;5.22;76.87;101749.80;1808081;78;27441;-64
2021/11/23 07:02:51;;;;;;;5.90;3.30;;;;;;;5.23;76.93;101751.98;1819618;78;25737;-64
2021/11/23 07:05:19;;;;;;;4.67;2.92;;;;;;;5.21;76.56;101758.73;1821769;78;25695;-65
2021/11/23 07:07:46;;;;;;;5.45;3.30;;;;;;;5.21;77.00;101761.41;1799522;78;25798;-64
2021/11/23 07:10:14;;;;;;;4.92;2.67;;;;;;;5.18;76.91;101761.55;1817665;77;25797;-63
2021/11/23 07:12:43;;;;;;;7.45;3.50;;;;;;;5.20;77.04;101765.02;1828468;78;27534;-64
2021/11/23 07:15:11;;;;;;;10.82;3.00;;;;;;;5.21;76.81;101770.75;1830543;78;25785;-65
2021/11/23 07:17:38;;;;;;;3.35;2.40;;;;;;;5.24;76.47;101775.05;1789076;78;25767;-63
2021/11/23 07:20:07;;;;;;;2.67;2.22;;;;;;;5.25;76.58;101775.45;1754659;80;25756;-63
2021/11/23 07:22:34;;;;;;;2.98;2.00;;;;;;;5.22;76.29;101780.94;1746639;82;25854;-63
2021/11/23 07:25:01;;;;;;;4.85;2.27;;;;;;;5.25;76.42;101772.30;1756725;80;27495;-63
2021/11/23 07:27:28;;;;;;;4.95;2.92;;;;;;;5.22;75.90;101777.81;1774824;80;25723;-62
2021/11/23 07:29:55;;;;;;;4.75;2.62;;;;;;;5.19;76.03;101779.29;1773211;80;25770;-64
2021/11/23 07:32:22;;;;;;;4.05;2.12;;;;;;;5.22;75.53;101775.14;1761833;80;26963;-63
2021/11/23 07:34:49;;;;;;;2.65;1.62;;;;;;;5.20;75.47;101785.02;1762647;80;25893;-63
2021/11/23 07:37:16;;;;;;;3.40;2.02;;;;;;;5.19;75.33;101787.77;1746537;82;26915;-64
2021/11/23 07:39:43;;;;;;;4.58;1.95;;;;;;;5.15;75.60;101801.73;1754770;81;25870;-63
2021/11/23 07:42:15;;;;;;;3.80;2.30;;;;;;;5.16;75.88;101795.44;1759710;81;25716;-64
2021/11/23 07:44:45;;;;;;;4.40;2.33;;;;;;;5.17;75.97;101791.83;1752157;80;25814;-63
2021/11/23 07:47:11;;;;;;;2.67;1.87;;;;;;;5.24;75.90;101801.28;1737156;80;25800;-63
2021/11/23 07:49:39;;;;;;;5.70;2.05;;;;;;;5.25;75.81;101801.65;1746291;80;27555;-63
2021/11/23 07:52:06;;;;;;;3.47;1.90;;;;;;;5.22;75.77;101808.95;1746113;82;25660;-63
2021/11/23 07:54:33;;;;;;;3.70;2.05;;;;;;;5.23;75.80;101802.22;1726159;82;25840;-64
2021/11/23 07:57:00;;;;;;;5.17;1.90;;;;;;;5.28;75.76;101810.84;1746726;80;25814;-63
2021/11/23 07:59:29;;;;;;;2.00;1.67;;;;;;;5.31;75.71;101815.16;1750158;80;25729;-64
2021/11/23 08:01:58;;;;;;;3.27;2.00;;;;;;;5.33;75.80;101817.29;1770335;80;27546;-65
2021/11/23 08:04:30;;;;;;;5.90;2.42;;;;;;;5.40;75.91;101816.52;1735616;80;25495;-66
2021/11/23 08:06:54;;;;;;;2.90;2.12;;;;;;;5.39;75.60;101818.30;1748878;80;25771;-66
2021/11/23 08:09:22;;;;;;;2.55;1.80;;;;;;;5.43;75.22;101821.23;1758217;80;25860;-63
2021/11/23 08:11:49;;;;;;;3.02;1.70;;;;;;;5.48;75.29;101820.52;1765173;79;25830;-63
2021/11/23 08:14:16;;;;;;;1.62;1.52;;;;;;;5.52;75.13;101818.55;1762522;80;27481;-65
2021/11/23 08:16:44;;;;;;;3.27;2.22;;;;;;;5.55;74.65;101826.90;1800886;79;26346;-62
2021/11/23 08:19:11;;;;;;;3.55;1.60;;;;;;;5.55;74.72;101831.75;1815244;77;25759;-62
2021/11/23 08:21:38;;;;;;;3.15;1.85;;;;;;;5.61;74.60;101836.77;1830142;78;25786;-62
2021/11/23 08:24:05;;;;;;;3.20;2.00;;;;;;;5.59;74.37;101844.02;1813407;78;25770;-63
2021/11/23 08:26:33;;;;;;;2.67;1.85;;;;;;;5.62;74.46;101847.00;1822505;77;27437;-63
2021/11/23 08:29:00;;;;;;;2.12;1.77;;;;;;;5.70;74.33;101846.59;1815814;78;25686;-63
2021/11/23 08:31:27;;;;;;;2.87;2.10;;;;;;;5.74;74.25;101844.17;1801207;78;25826;-63
2021/11/23 08:33:53;;;;;;;1.65;1.45;;;;;;;5.74;73.69;101841.50;1809352;78;25739;-63
2021/11/23 08:36:20;;;;;;;3.00;1.90;;;;;;;5.70;73.41;101847.92;1814801;78;25740;-63
2021/11/23 08:38:50;;;;;;;2.58;2.05;;;;;;;5.70;73.23;101845.25;1801401;78;27440;-67
2021/11/23 08:41:20;;;;;;;3.17;2.00;;;;;;;5.67;73.37;101852.95;1807280;78;25785;-65
2021/11/23 08:43:47;;;;;;;1.75;1.60;;;;;;;5.71;73.17;101849.20;1800389;78;25491;-64
2021/11/23 08:46:17;;;;;;;2.02;1.80;;;;;;;5.79;73.47;101856.80;1802614;78;26586;-63
2021/11/23 08:48:44;;;;;;;3.15;2.10;;;;;;;5.83;73.43;101853.05;1799759;79;26509;-63
2021/11/23 08:51:16;;;;;;;1.80;1.60;;;;;;;5.86;72.71;101858.23;1797186;78;27480;-64
2021/11/23 08:53:41;;;;;;;2.80;1.92;;;;;;;5.82;72.06;101855.31;1805517;78;25289;-64
2021/11/23 08:56:09;;;;;;;1.80;1.60;;;;;;;5.72;72.48;101855.39;1802169;78;25636;-63
2021/11/23 08:58:38;;;;;;;2.15;1.85;;;;;;;5.71;73.01;101853.66;1811797;78;27039;-64
2021/11/23 09:01:05;;;;;;;4.20;2.25;;;;;;;5.67;72.92;101865.45;1805624;78;25671;-65
2021/11/23 09:03:39;;;;;;;3.37;2.30;;;;;;;5.63;72.89;101860.26;1812825;77;27340;-68
2021/11/23 09:06:06;;;;;;;;;;;;;;;5.64;73.44;101858.47;1838404;78;26197;-63
2021/11/23 09:08:39;;;;;;;2.87;1.67;;;;;;;5.68;73.39;101849.34;1821058;78;25849;-63
2021/11/23 09:11:02;;;;;;;4.05;2.02;;;;;;;5.78;73.76;101860.44;1832414;78;25887;-63
2021/11/23 09:13:29;;;;;;;3.17;2.10;;;;;;;5.82;73.60;101861.14;1783034;79;25738;-65
2021/11/23 09:15:58;;;;;;;2.50;2.25;;;;;;;5.79;73.55;101863.02;1822623;78;28704;-65
2021/11/23 09:18:25;;;;;;;6.67;2.30;;;;;;;5.76;72.85;101856.98;1810354;78;25921;-63
2021/11/23 09:20:56;;;;;;;2.92;2.17;;;;;;;5.66;73.32;101863.72;1808522;77;25706;-68
2021/11/23 09:23:28;;;;;;;13.25;3.05;;;;;;;5.66;73.66;101867.23;1815524;78;25814;-64
2021/11/23 09:25:57;;;;;;;3.55;1.85;;;;;;;5.72;73.27;101859.39;1741226;81;25873;-67
2021/11/23 09:28:31;;;;;;;3.50;2.25;;;;;;;5.64;73.17;101865.14;1746192;81;25977;-62
2021/11/23 09:30:58;;;;;;;3.75;3.05;;;;;;;5.57;73.19;101860.58;1815349;78;25318;-65
2021/11/23 09:33:25;;;;;;;3.65;1.92;;;;;;;5.53;72.80;101860.31;1829828;78;25706;-65
2021/11/23 09:35:52;;;;;;;8.23;2.40;;;;;;;5.40;73.20;101861.89;1792618;80;25775;-64
2021/11/23 09:38:21;;;;;;;8.05;3.42;;;;;;;5.41;73.94;101865.80;1750310;80;25687;-64
2021/11/23 09:40:49;;;;;;;3.72;2.50;;;;;;;5.41;73.98;101864.47;1790466;80;27482;-63
2021/11/23 09:43:16;;;;;;;6.55;2.20;;;;;;;5.46;73.74;101865.13;1778192;80;25754;-61
2021/11/23 09:45:44;;;;;;;6.92;2.10;;;;;;;5.45;73.65;101862.51;1790062;80;25742;-64
2021/11/23 09:48:11;;;;;;;3.33;2.22;;;;;;;5.46;73.78;101870.46;1773230;80;25763;-63
2021/11/23 09:50:41;;;;;;;3.52;2.62;;;;;;;5.47;73.56;101866.82;1789635;80;25663;-63
2021/11/23 09:53:10;;;;;;;3.45;2.47;;;;;;;5.48;73.30;101871.22;1773792;80;28690;-64
2021/11/23 09:55:39;;;;;;;9.73;2.98;;;;;;;5.53;73.44;101865.66;1774795;80;25549;-64
2021/11/23 09:58:09;;;;;;;5.72;4.03;;;;;;;5.57;73.42;101871.25;1774058;80;25842;-63
2021/11/23 10:00:40;;;;;;;7.75;3.17;;;;;;;5.61;73.16;101868.80;1785367;80;26160;-63
2021/11/23 10:03:30;;;;;;;10.70;3.60;;;;;;;5.61;73.06;101866.62;1750661;80;25826;-64
2021/11/23 10:06:18;;;;;;;11.65;3.37;;;;;;;5.64;73.22;101875.34;1774784;78;28834;-64
2021/11/23 10:08:48;;;;;;;6.00;3.72;;;;;;;5.64;72.89;101879.83;1751272;81;26078;-65
2021/11/23 10:11:26;;;;;;;8.93;3.83;;;;;;;5.53;72.83;101881.67;1768030;80;26519;-68
2021/11/23 10:13:58;;;;;;;5.55;3.83;;;;;;;5.51;73.00;101884.03;1751395;80;26615;-67
2021/11/23 10:16:49;;;;;;;12.82;4.97;;;;;;;5.49;73.14;101877.44;1744705;82;26528;-64
2021/11/23 10:19:20;;;;;;;4.70;3.67;;;;;;;5.50;73.11;101875.17;1758998;80;27445;-65
2021/11/23 10:21:58;;;;;;;5.22;4.22;;;;;;;5.58;72.99;101875.66;1753499;80;25741;-65
2021/11/23 10:24:25;;;;;;;;;;;;;;;5.66;73.11;101872.58;1748886;81;25761;-63
2021/11/23 10:26:53;;;;;;;5.53;4.28;;;;;;;5.84;72.59;101861.45;1751042;80;25818;-65
2021/11/23 10:29:20;;;;;;;4.87;3.90;;;;;;;5.87;72.07;101863.09;1775205;79;25790;-63
2021/11/23 10:31:47;;;;;;;5.70;4.28;;;;;;;5.94;72.25;101865.84;1772309;80;27884;-64
2021/11/23 10:34:19;;;;;;;5.87;3.55;;;;;;;6.02;72.12;101862.33;1756190;80;26273;-65
2021/11/23 10:36:49;;;;;;;5.50;4.20;;;;;;;5.99;71.22;101862.92;1759528;80;26097;-64
2021/11/23 10:39:26;;;;;;;3.92;3.35;;;;;;;6.05;71.67;101865.34;1760443;80;25752;-62
2021/11/23 10:41:58;;;;;;;7.28;3.60;;;;;;;6.15;70.71;101865.22;1745574;80;25901;-63
2021/11/23 10:44:33;;;;;;;3.47;3.17;;;;;;;6.19;70.72;101858.78;1800750;78;27571;-63
2021/11/23 10:47:05;;;;;;;;;;;;;;;6.30;70.06;101857.36;1805671;78;25731;-65
2021/11/23 10:49:42;;;;;;;9.30;3.70;;;;;;;6.45;69.10;101856.53;1762718;81;25644;-64
2021/11/23 10:52:08;;;;;;;3.65;3.30;;;;;;;6.54;68.38;101856.03;1739133;81;26972;-65
2021/11/23 10:54:35;;;;;;;5.25;3.80;;;;;;;6.50;67.28;101855.79;1724172;81;25811;-64
2021/11/23 10:57:07;;;;;;;3.70;3.20;;;;;;;6.50;67.72;101858.46;1736563;81;27484;-64
2021/11/23 10:59:36;;;;;;;3.95;2.35;;;;;;;6.48;67.32;101867.52;1742231;81;25973;-64
2021/11/23 11:02:03;;;;;;;3.35;2.92;;;;;;;6.55;67.55;101860.89;1723997;81;25807;-64
2021/11/23 11:04:39;;;;;;;3.65;2.92;;;;;;;6.57;67.18;101859.89;1761908;80;26143;-63
2021/11/23 11:07:08;;;;;;;3.90;2.90;;;;;;;6.74;66.75;101859.43;1781241;80;25855;-64
2021/11/23 11:09:36;;;;;;;4.30;3.25;;;;;;;6.87;66.50;101864.96;1781610;80;27441;-64
2021/11/23 11:12:04;;;;;;;6.45;3.60;;;;;;;6.97;66.27;101864.84;1779405;80;25742;-63
2021/11/23 11:14:39;;;;;;;8.28;4.80;;;;;;;7.08;66.38;101865.56;1781818;80;26099;-64
2021/11/23 11:17:09;;;;;;;8.13;4.97;;;;;;;7.12;65.60;101863.58;1764473;80;26543;-63
2021/11/23 11:19:51;;;;;;;9.25;6.37;;;;;;;6.99;66.11;101856.72;1757743;81;25496;-63
2021/11/23 11:22:24;;;;;;;6.15;4.35;;;;;;;6.91;65.23;101862.48;1746972;80;27453;-63
2021/11/23 11:25:13;;;;;;;4.92;3.72;;;;;;;6.81;65.77;101854.61;1751794;80;25704;-64
2021/11/23 11:27:43;;;;;;;6.12;4.15;;;;;;;6.70;65.08;101857.41;1758343;80;25814;-63
2021/11/23 11:30:35;;;;;;;7.78;3.70;;;;;;;6.40;64.89;101851.43;1756442;81;26137;-64
2021/11/23 11:33:13;;;;;;;5.67;4.33;;;;;;;6.31;65.09;101859.94;1746413;81;26018;-63